Time;durP1;ratioP1;P1;durP2;ratioP2;P2;SDS_P1;SDS_P2;PMS_P1;PMS_P2;Temp;Humidity;BMP_temperature;BMP_pressure;BME280_temperature;BME280_humidity;BME280_pressure;Samples;Min_cycle;Max_cycle;Signal;HPM_P1;HPM_P2
2023/06/14 00:01:09;;;;;;;6.95;3.08;;;;;;;;;;5054727;28;20638;-57
2023/06/14 00:03:34;;;;;;;8.25;3.22;;;;;;;;;;5054355;28;20666;-57
2023/06/14 00:06:00;;;;;;;9.35;2.90;;;;;;;;;;5055016;28;20277;-57
2023/06/14 00:08:25;;;;;;;7.35;2.58;;;;;;;;;;5047960;28;20220;-57
2023/06/14 00:10:51;;;;;;;9.90;3.08;;;;;;;;;;5049172;28;20219;-58
2023/06/14 00:13:16;;;;;;;8.45;3.45;;;;;;;;;;5037041;28;20212;-57
2023/06/14 00:15:42;;;;;;;8.70;2.90;;;;;;;;;;5034859;28;20303;-57
2023/06/14 00:18:09;;;;;;;6.72;3.00;;;;;;;;;;5033653;28;20232;-58
2023/06/14 00:20:34;;;;;;;9.95;3.13;;;;;;;;;;5034650;28;20281;-57
2023/06/14 00:23:00;;;;;;;7.45;2.90;;;;;;;;;;5034884;28;20216;-57
2023/06/14 00:25:25;;;;;;;9.07;3.05;;;;;;;;;;5033524;28;20250;-58
2023/06/14 00:27:51;;;;;;;6.25;2.67;;;;;;;;;;5034848;28;20215;-58
2023/06/14 00:30:16;;;;;;;6.75;2.83;;;;;;;;;;5034252;28;20614;-57
2023/06/14 00:32:42;;;;;;;9.77;2.90;;;;;;;;;;5033859;28;20686;-57
2023/06/14 00:35:08;;;;;;;6.00;2.78;;;;;;;;;;5034144;28;20628;-57
2023/06/14 00:37:33;;;;;;;8.07;2.78;;;;;;;;;;5034619;28;20286;-58
2023/06/14 00:39:59;;;;;;;14.18;2.97;;;;;;;;;;5033444;28;20687;-58
2023/06/14 00:42:25;;;;;;;7.03;3.20;;;;;;;;;;5034242;28;20215;-57
2023/06/14 00:44:51;;;;;;;9.23;2.90;;;;;;;;;;5034316;28;20576;-58
2023/06/14 00:47:16;;;;;;;7.68;2.65;;;;;;;;;;5033357;28;20219;-57
2023/06/14 00:49:42;;;;;;;10.77;3.17;;;;;;;;;;5034286;28;20291;-57
2023/06/14 00:52:07;;;;;;;9.02;2.70;;;;;;;;;;5033157;28;20559;-57
2023/06/14 00:54:32;;;;;;;6.13;2.70;;;;;;;;;;5034059;28;20622;-58
2023/06/14 00:56:58;;;;;;;7.38;2.60;;;;;;;;;;5048662;28;20238;-58
2023/06/14 00:59:23;;;;;;;7.35;2.70;;;;;;;;;;5052950;28;20215;-57
2023/06/14 01:01:48;;;;;;;7.50;2.83;;;;;;;;;;5053417;28;20218;-57
2023/06/14 01:04:13;;;;;;;9.10;3.05;;;;;;;;;;5053195;28;20211;-57
2023/06/14 01:06:41;;;;;;;6.22;3.10;;;;;;;;;;5053069;28;20556;-57
2023/06/14 01:09:15;;;;;;;6.70;2.92;;;;;;;;;;5041369;28;20286;-57
2023/06/14 01:11:46;;;;;;;7.20;3.15;;;;;;;;;;5033721;28;20235;-57
2023/06/14 01:14:12;;;;;;;9.45;3.03;;;;;;;;;;5032625;28;20678;-57
2023/06/14 01:16:39;;;;;;;8.05;2.88;;;;;;;;;;5032492;28;20231;-58
2023/06/14 01:19:05;;;;;;;8.38;2.72;;;;;;;;;;5033355;28;20215;-57
2023/06/14 01:21:30;;;;;;;7.07;2.78;;;;;;;;;;5031538;28;20229;-58
2023/06/14 01:23:55;;;;;;;9.55;2.97;;;;;;;;;;5033815;28;20217;-57
2023/06/14 01:26:22;;;;;;;8.90;3.30;;;;;;;;;;5032987;28;20204;-57
2023/06/14 01:28:48;;;;;;;9.57;2.95;;;;;;;;;;5033009;28;20425;-58
2023/06/14 01:31:16;;;;;;;6.25;2.85;;;;;;;;;;5031923;28;20218;-58
2023/06/14 01:33:41;;;;;;;7.15;2.53;;;;;;;;;;5033585;28;20218;-57
2023/06/14 01:36:07;;;;;;;5.65;2.92;;;;;;;;;;5030869;28;20207;-57
2023/06/14 01:38:32;;;;;;;13.50;3.13;;;;;;;;;;5032225;28;20230;-57
2023/06/14 01:40:58;;;;;;;8.85;2.80;;;;;;;;;;5033319;28;20227;-58
2023/06/14 01:43:23;;;;;;;8.43;3.08;;;;;;;;;;5032246;28;20227;-57
2023/06/14 01:45:48;;;;;;;10.68;2.83;;;;;;;;;;5033148;28;20219;-58
2023/06/14 01:48:14;;;;;;;7.68;2.85;;;;;;;;;;5032695;28;20218;-57
2023/06/14 01:50:39;;;;;;;9.82;2.58;;;;;;;;;;5032576;28;20236;-57
2023/06/14 01:53:07;;;;;;;9.13;2.90;;;;;;;;;;5032887;28;20223;-57
2023/06/14 01:55:37;;;;;;;7.30;3.00;;;;;;;;;;5035143;28;20264;-57
2023/06/14 01:58:02;;;;;;;7.95;2.70;;;;;;;;;;5052431;28;20235;-58
2023/06/14 02:00:27;;;;;;;7.50;2.80;;;;;;;;;;5052817;28;20227;-58
2023/06/14 02:02:52;;;;;;;6.22;2.97;;;;;;;;;;5052165;28;20221;-58
2023/06/14 02:05:18;;;;;;;6.10;2.70;;;;;;;;;;5052269;28;20247;-57
2023/06/14 02:07:44;;;;;;;8.60;2.78;;;;;;;;;;5052051;28;20219;-58
2023/06/14 02:10:09;;;;;;;8.38;2.78;;;;;;;;;;5031713;28;20524;-57
2023/06/14 02:12:35;;;;;;;8.23;2.70;;;;;;;;;;5032391;28;20216;-57
2023/06/14 02:15:00;;;;;;;8.05;2.83;;;;;;;;;;5032282;28;20230;-58
2023/06/14 02:17:26;;;;;;;10.68;2.90;;;;;;;;;;5031752;28;20211;-57
2023/06/14 02:19:51;;;;;;;7.55;2.88;;;;;;;;;;5032681;28;20303;-57
2023/06/14 02:22:16;;;;;;;7.10;2.60;;;;;;;;;;5031962;28;20262;-58
2023/06/14 02:24:42;;;;;;;8.50;3.30;;;;;;;;;;5031845;28;20262;-58
2023/06/14 02:27:10;;;;;;;7.90;2.85;;;;;;;;;;5031975;28;20238;-57
2023/06/14 02:29:35;;;;;;;7.55;3.08;;;;;;;;;;5032580;28;20216;-57
2023/06/14 02:32:01;;;;;;;10.13;2.67;;;;;;;;;;5031304;28;20219;-57
2023/06/14 02:34:26;;;;;;;7.65;2.67;;;;;;;;;;5032461;28;20216;-57
2023/06/14 02:36:52;;;;;;;4.53;2.55;;;;;;;;;;5032182;28;20252;-57
2023/06/14 02:39:20;;;;;;;9.60;2.72;;;;;;;;;;5002411;28;20310;-57
2023/06/14 02:41:46;;;;;;;10.90;3.05;;;;;;;;;;5017890;28;20232;-57
2023/06/14 02:44:12;;;;;;;8.90;2.60;;;;;;;;;;5021331;28;20221;-58
2023/06/14 02:46:38;;;;;;;9.45;3.13;;;;;;;;;;5012294;28;20311;-57
2023/06/14 02:49:03;;;;;;;6.68;3.17;;;;;;;;;;5002673;28;20295;-58
2023/06/14 02:51:28;;;;;;;7.32;2.70;;;;;;;;;;5002590;28;20262;-58
2023/06/14 02:53:54;;;;;;;8.07;2.90;;;;;;;;;;4994266;28;20555;-58
2023/06/14 02:56:19;;;;;;;4.53;2.45;;;;;;;;;;5004059;28;20676;-58
2023/06/14 02:58:44;;;;;;;9.23;3.00;;;;;;;;;;4993700;28;20291;-58
2023/06/14 03:01:12;;;;;;;8.23;2.80;;;;;;;;;;5001579;28;20290;-57
2023/06/14 03:03:38;;;;;;;9.60;3.00;;;;;;;;;;5022102;28;20301;-57
2023/06/14 03:06:04;;;;;;;9.40;3.13;;;;;;;;;;5020734;28;20691;-57
2023/06/14 03:08:31;;;;;;;8.07;2.88;;;;;;;;;;5015639;28;20847;-58
2023/06/14 03:10:57;;;;;;;10.27;2.80;;;;;;;;;;5002776;28;20303;-57
2023/06/14 03:13:23;;;;;;;6.57;2.88;;;;;;;;;;5001315;28;20627;-57
2023/06/14 03:15:50;;;;;;;7.50;2.85;;;;;;;;;;5003123;28;20219;-57
2023/06/14 03:18:16;;;;;;;6.03;2.85;;;;;;;;;;5012654;28;20207;-58
2023/06/14 03:20:42;;;;;;;5.13;2.65;;;;;;;;;;5012353;28;20281;-58
2023/06/14 03:23:07;;;;;;;8.27;2.85;;;;;;;;;;5018897;28;20224;-57
2023/06/14 03:25:35;;;;;;;7.22;2.83;;;;;;;;;;5023788;28;20617;-58
2023/06/14 03:28:00;;;;;;;9.32;2.70;;;;;;;;;;5026989;28;20529;-57
2023/06/14 03:30:26;;;;;;;6.20;2.60;;;;;;;;;;5027957;28;20211;-57
2023/06/14 03:32:52;;;;;;;15.30;2.92;;;;;;;;;;5027972;28;20215;-57
2023/06/14 03:35:18;;;;;;;7.68;2.50;;;;;;;;;;5027273;28;20691;-58
2023/06/14 03:37:44;;;;;;;6.45;2.70;;;;;;;;;;5024675;28;20822;-57
2023/06/14 03:40:10;;;;;;;5.47;2.55;;;;;;;;;;5033236;28;20219;-57
2023/06/14 03:42:35;;;;;;;5.55;2.50;;;;;;;;;;5037141;28;20234;-57
2023/06/14 03:45:00;;;;;;;7.40;2.88;;;;;;;;;;5037467;28;20697;-55
2023/06/14 03:47:26;;;;;;;7.65;2.80;;;;;;;;;;5019904;28;20578;-57
2023/06/14 03:49:52;;;;;;;7.60;2.85;;;;;;;;;;5017561;28;20224;-57
2023/06/14 03:52:17;;;;;;;11.38;2.88;;;;;;;;;;5017574;28;20224;-57
2023/06/14 03:54:44;;;;;;;8.43;2.60;;;;;;;;;;5018368;28;20204;-58
2023/06/14 03:57:10;;;;;;;5.30;2.70;;;;;;;;;;5049216;28;20238;-58
2023/06/14 03:59:35;;;;;;;6.00;2.75;;;;;;;;;;5057679;28;20215;-57
2023/06/14 04:02:00;;;;;;;150.30;12.85;;;;;;;;;;5056698;28;20767;-56
2023/06/14 04:04:29;;;;;;;7.63;2.70;;;;;;;;;;5047926;28;20239;-58
2023/06/14 04:06:55;;;;;;;7.20;2.83;;;;;;;;;;5001147;28;20219;-57
2023/06/14 04:09:20;;;;;;;7.93;3.33;;;;;;;;;;4999736;28;22277;-58
2023/06/14 04:11:46;;;;;;;7.78;2.83;;;;;;;;;;5008178;28;20291;-58
2023/06/14 04:14:11;;;;;;;8.48;2.83;;;;;;;;;;5007470;28;20213;-57
2023/06/14 04:16:36;;;;;;;8.52;2.90;;;;;;;;;;5007933;28;20227;-58
2023/06/14 04:19:02;;;;;;;10.18;3.10;;;;;;;;;;5025336;28;20211;-57
2023/06/14 04:21:28;;;;;;;6.97;2.80;;;;;;;;;;5027935;28;20232;-58
2023/06/14 04:23:55;;;;;;;6.18;2.47;;;;;;;;;;5017500;28;20217;-57
2023/06/14 04:26:20;;;;;;;14.60;2.85;;;;;;;;;;5003444;28;20232;-58
2023/06/14 04:28:46;;;;;;;10.45;3.00;;;;;;;;;;5000127;28;20223;-58
2023/06/14 04:31:12;;;;;;;7.57;2.75;;;;;;;;;;4998896;28;20235;-57
2023/06/14 04:33:43;;;;;;;8.07;2.65;;;;;;;;;;5004722;28;20220;-57
2023/06/14 04:36:11;;;;;;;7.30;2.80;;;;;;;;;;5027340;28;20298;-57
2023/06/14 04:38:37;;;;;;;6.55;2.65;;;;;;;;;;5022766;28;20329;-58
2023/06/14 04:41:02;;;;;;;6.20;2.80;;;;;;;;;;5023672;28;20228;-57
2023/06/14 04:43:27;;;;;;;13.20;3.35;;;;;;;;;;5024452;28;20219;-58
2023/06/14 04:45:54;;;;;;;6.43;2.85;;;;;;;;;;5018319;28;20216;-58
2023/06/14 04:48:20;;;;;;;7.30;2.88;;;;;;;;;;5021608;28;20556;-57
2023/06/14 04:50:45;;;;;;;6.85;2.88;;;;;;;;;;5016843;28;20455;-58
2023/06/14 04:53:11;;;;;;;12.20;2.83;;;;;;;;;;5015068;28;20748;-57
2023/06/14 04:55:37;;;;;;;8.63;2.80;;;;;;;;;;5015270;28;20219;-57
2023/06/14 04:58:03;;;;;;;6.57;2.90;;;;;;;;;;5003942;28;20262;-57
2023/06/14 05:00:28;;;;;;;19.65;3.72;;;;;;;;;;5003800;28;20314;-57
2023/06/14 05:02:53;;;;;;;7.32;2.97;;;;;;;;;;5004317;28;20243;-58
2023/06/14 05:05:20;;;;;;;6.65;2.92;;;;;;;;;;5003407;28;20216;-58
2023/06/14 05:07:46;;;;;;;7.18;2.83;;;;;;;;;;5006754;28;20215;-58
2023/06/14 05:10:11;;;;;;;6.10;3.00;;;;;;;;;;5002957;28;20535;-58
2023/06/14 05:12:37;;;;;;;8.60;3.03;;;;;;;;;;4996556;28;20612;-57
2023/06/14 05:15:02;;;;;;;8.50;3.00;;;;;;;;;;4995032;28;21044;-57
2023/06/14 05:17:28;;;;;;;7.72;2.58;;;;;;;;;;4996822;28;20708;-58
2023/06/14 05:19:55;;;;;;;8.68;3.15;;;;;;;;;;5021232;28;20568;-58
2023/06/14 05:22:20;;;;;;;8.75;2.90;;;;;;;;;;5023453;28;20282;-58
2023/06/14 05:24:48;;;;;;;7.30;2.63;;;;;;;;;;5023681;28;20702;-58
2023/06/14 05:27:13;;;;;;;8.55;3.10;;;;;;;;;;5022014;28;20316;-57
2023/06/14 05:29:38;;;;;;;34.88;5.13;;;;;;;;;;5023946;28;20687;-58
2023/06/14 05:32:04;;;;;;;125.70;12.15;;;;;;;;;;5023085;28;20641;-58
2023/06/14 05:34:29;;;;;;;9.55;2.90;;;;;;;;;;5002296;28;20243;-58
2023/06/14 05:36:55;;;;;;;4.47;2.95;;;;;;;;;;4995670;28;20217;-57
2023/06/14 05:39:20;;;;;;;109.57;9.85;;;;;;;;;;4995256;28;20221;-57
2023/06/14 05:41:45;;;;;;;5.25;2.60;;;;;;;;;;5000401;28;20255;-57
2023/06/14 05:44:11;;;;;;;129.07;12.50;;;;;;;;;;5003283;28;20216;-57
2023/06/14 05:46:36;;;;;;;5.53;2.97;;;;;;;;;;5003681;28;20944;-58
2023/06/14 05:49:02;;;;;;;6.97;2.90;;;;;;;;;;5002203;28;20231;-57
2023/06/14 05:51:27;;;;;;;5.43;2.78;;;;;;;;;;5013454;28;20227;-58
2023/06/14 05:53:52;;;;;;;5.85;2.80;;;;;;;;;;5022926;28;20258;-58
2023/06/14 05:56:18;;;;;;;6.97;2.83;;;;;;;;;;5010326;28;20250;-58
2023/06/14 05:58:43;;;;;;;9.55;3.40;;;;;;;;;;5007547;28;20227;-58
2023/06/14 06:01:08;;;;;;;6.30;2.75;;;;;;;;;;4997933;28;20312;-57
2023/06/14 06:03:34;;;;;;;6.18;2.63;;;;;;;;;;5007306;28;20224;-58
2023/06/14 06:05:59;;;;;;;6.32;3.00;;;;;;;;;;5000461;28;20825;-59
2023/06/14 06:08:25;;;;;;;5.97;2.67;;;;;;;;;;5015466;28;20220;-58
2023/06/14 06:10:50;;;;;;;21.63;3.47;;;;;;;;;;5014545;28;20303;-58
2023/06/14 06:13:16;;;;;;;9.43;3.22;;;;;;;;;;5044704;28;20361;-58
2023/06/14 06:15:41;;;;;;;6.47;2.75;;;;;;;;;;5039260;28;20336;-58
2023/06/14 06:18:06;;;;;;;6.50;2.47;;;;;;;;;;5051992;28;20298;-57
2023/06/14 06:20:32;;;;;;;13.90;3.33;;;;;;;;;;5052701;28;20235;-59
2023/06/14 06:22:57;;;;;;;9.75;2.70;;;;;;;;;;5051423;28;20697;-59
2023/06/14 06:25:25;;;;;;;7.93;2.80;;;;;;;;;;5051709;28;20718;-59
2023/06/14 06:27:52;;;;;;;6.45;2.70;;;;;;;;;;5049907;28;20223;-59
2023/06/14 06:30:17;;;;;;;6.25;2.72;;;;;;;;;;5050677;28;20214;-59
2023/06/14 06:32:43;;;;;;;8.00;3.00;;;;;;;;;;5052141;28;20214;-58
2023/06/14 06:35:10;;;;;;;6.30;2.85;;;;;;;;;;5051697;28;20221;-59
2023/06/14 06:37:36;;;;;;;6.95;2.85;;;;;;;;;;5051212;28;20272;-59
2023/06/14 06:40:02;;;;;;;7.32;2.85;;;;;;;;;;5051481;28;20666;-59
2023/06/14 06:42:27;;;;;;;4.68;2.60;;;;;;;;;;5052221;28;20231;-59
2023/06/14 06:44:53;;;;;;;6.20;2.53;;;;;;;;;;5051371;28;20743;-59
2023/06/14 06:47:18;;;;;;;10.25;2.70;;;;;;;;;;5034131;28;20683;-59
2023/06/14 06:49:43;;;;;;;11.73;2.80;;;;;;;;;;5032034;28;20216;-59
2023/06/14 06:52:09;;;;;;;6.35;2.45;;;;;;;;;;5030758;28;20222;-59
2023/06/14 06:54:34;;;;;;;6.07;2.30;;;;;;;;;;5031819;28;20801;-59
2023/06/14 06:57:01;;;;;;;5.80;2.28;;;;;;;;;;5046649;28;20239;-59
2023/06/14 06:59:26;;;;;;;5.60;2.30;;;;;;;;;;5050488;28;20211;-59
2023/06/14 07:01:52;;;;;;;6.75;2.30;;;;;;;;;;5049653;28;20721;-59
2023/06/14 07:04:17;;;;;;;7.20;2.35;;;;;;;;;;5051179;28;20223;-59
2023/06/14 07:06:43;;;;;;;5.93;2.00;;;;;;;;;;5044602;28;20653;-59
2023/06/14 07:09:12;;;;;;;4.30;2.20;;;;;;;;;;5021916;28;20726;-59
2023/06/14 07:11:38;;;;;;;5.70;2.20;;;;;;;;;;5034664;28;20683;-59
2023/06/14 07:14:03;;;;;;;11.23;2.55;;;;;;;;;;5027888;28;20208;-59
2023/06/14 07:16:28;;;;;;;7.15;2.35;;;;;;;;;;5031610;28;20212;-59
2023/06/14 07:18:54;;;;;;;4.07;1.90;;;;;;;;;;5021778;28;20208;-59
2023/06/14 07:21:19;;;;;;;6.95;2.00;;;;;;;;;;5031100;28;20257;-58
2023/06/14 07:23:45;;;;;;;5.03;2.25;;;;;;;;;;5031137;28;20281;-59
2023/06/14 07:26:10;;;;;;;33.28;3.50;;;;;;;;;;5018945;28;20215;-60
2023/06/14 07:28:35;;;;;;;9.13;2.28;;;;;;;;;;5031555;28;20216;-60
2023/06/14 07:31:01;;;;;;;4.03;1.85;;;;;;;;;;5030192;28;20247;-59
2023/06/14 07:33:26;;;;;;;4.50;1.80;;;;;;;;;;5030718;28;20223;-59
2023/06/14 07:35:52;;;;;;;5.68;1.70;;;;;;;;;;5031076;28;20303;-60
2023/06/14 07:38:18;;;;;;;3.85;1.80;;;;;;;;;;5030736;28;20270;-60
2023/06/14 07:40:43;;;;;;;4.00;1.60;;;;;;;;;;5030811;28;20270;-59
2023/06/14 07:43:09;;;;;;;3.00;1.67;;;;;;;;;;5030859;28;20231;-60
2023/06/14 07:45:34;;;;;;;6.30;1.85;;;;;;;;;;5031257;28;20222;-60
2023/06/14 07:47:59;;;;;;;5.45;1.75;;;;;;;;;;5030510;28;20298;-59
2023/06/14 07:50:25;;;;;;;6.10;2.10;;;;;;;;;;5031007;28;20254;-60
2023/06/14 07:52:50;;;;;;;7.25;1.88;;;;;;;;;;5031037;28;20239;-59
2023/06/14 07:55:15;;;;;;;5.30;1.83;;;;;;;;;;5030605;28;20394;-59
2023/06/14 07:57:42;;;;;;;6.18;2.00;;;;;;;;;;5050965;28;20574;-60
2023/06/14 08:00:08;;;;;;;5.90;1.95;;;;;;;;;;5050612;28;20223;-60
2023/06/14 08:02:33;;;;;;;3.67;2.00;;;;;;;;;;5050685;28;20675;-60
2023/06/14 08:04:58;;;;;;;3.72;1.70;;;;;;;;;;5051046;28;20696;-59
2023/06/14 08:07:24;;;;;;;3.83;1.92;;;;;;;;;;5018600;28;20692;-59
2023/06/14 08:09:49;;;;;;;10.60;2.30;;;;;;;;;;5020901;28;20212;-59
2023/06/14 08:12:15;;;;;;;23.38;2.97;;;;;;;;;;5041764;28;20215;-60
2023/06/14 08:14:41;;;;;;;10.40;1.88;;;;;;;;;;5038537;28;20261;-60
2023/06/14 08:17:07;;;;;;;4.57;1.95;;;;;;;;;;5047479;28;20227;-59
2023/06/14 08:19:32;;;;;;;4.47;1.70;;;;;;;;;;5033821;28;20463;-59
2023/06/14 08:21:58;;;;;;;5.55;2.13;;;;;;;;;;5034493;28;20220;-60
2023/06/14 08:24:24;;;;;;;93.82;8.07;;;;;;;;;;5033632;28;20242;-60
2023/06/14 08:26:50;;;;;;;8.05;1.80;;;;;;;;;;5026055;28;20219;-60
2023/06/14 08:29:15;;;;;;;5.35;2.25;;;;;;;;;;5022422;28;20211;-60
2023/06/14 08:31:40;;;;;;;4.72;1.98;;;;;;;;;;5025310;28;20600;-59
2023/06/14 08:34:06;;;;;;;34.17;3.88;;;;;;;;;;5023109;28;20539;-59
2023/06/14 08:36:31;;;;;;;8.35;2.03;;;;;;;;;;5023314;28;20546;-59
2023/06/14 08:38:56;;;;;;;11.68;2.10;;;;;;;;;;5029421;23;20232;-60
2023/06/14 08:41:24;;;;;;;6.30;1.83;;;;;;;;;;5032221;28;20589;-59
2023/06/14 08:43:49;;;;;;;3.63;1.73;;;;;;;;;;5031710;28;20216;-59
2023/06/14 08:46:18;;;;;;;6.57;1.75;;;;;;;;;;5031836;28;20212;-58
2023/06/14 08:48:43;;;;;;;9.20;2.10;;;;;;;;;;5031366;28;20261;-60
2023/06/14 08:51:09;;;;;;;6.60;2.00;;;;;;;;;;5025932;28;20303;-60
2023/06/14 08:53:34;;;;;;;7.18;2.00;;;;;;;;;;5014442;28;20262;-59
2023/06/14 08:56:04;;;;;;;6.18;2.13;;;;;;;;;;5020773;28;20607;-59
2023/06/14 08:58:31;;;;;;;2.60;1.40;;;;;;;;;;5031040;28;20230;-59
2023/06/14 09:00:57;;;;;;;3.97;1.60;;;;;;;;;;5032515;28;20285;-59
2023/06/14 09:03:23;;;;;;;6.43;1.67;;;;;;;;;;5032323;28;20295;-59
2023/06/14 09:05:49;;;;;;;13.90;1.98;;;;;;;;;;5032782;28;20212;-59
2023/06/14 09:08:16;;;;;;;8.77;1.42;;;;;;;;;;5027076;28;20215;-59
2023/06/14 09:10:41;;;;;;;8.02;2.25;;;;;;;;;;5011360;28;20220;-59
2023/06/14 09:13:06;;;;;;;5.28;1.67;;;;;;;;;;5011914;28;20613;-59
2023/06/14 09:15:32;;;;;;;3.58;1.85;;;;;;;;;;5013085;28;20221;-59
2023/06/14 09:17:57;;;;;;;3.63;1.70;;;;;;;;;;5011875;28;20271;-59
2023/06/14 09:20:23;;;;;;;6.68;1.70;;;;;;;;;;5009893;28;20235;-59
2023/06/14 09:22:49;;;;;;;9.43;2.15;;;;;;;;;;5011846;28;20240;-59
2023/06/14 09:25:15;;;;;;;4.30;1.65;;;;;;;;;;5011912;28;20713;-58
2023/06/14 09:27:41;;;;;;;5.25;1.52;;;;;;;;;;5012153;28;20270;-59
2023/06/14 09:30:09;;;;;;;4.60;1.50;;;;;;;;;;5011863;28;20213;-58
2023/06/14 09:32:40;;;;;;;5.03;1.80;;;;;;;;;;5011702;28;20247;-59
2023/06/14 09:35:06;;;;;;;6.93;1.63;;;;;;;;;;5012079;28;20205;-59
2023/06/14 09:37:32;;;;;;;3.40;1.50;;;;;;;;;;5012274;28;20255;-59
2023/06/14 09:39:57;;;;;;;3.35;1.50;;;;;;;;;;5011302;28;20671;-59
2023/06/14 09:42:25;;;;;;;4.30;1.30;;;;;;;;;;5011543;28;20686;-59
2023/06/14 09:44:51;;;;;;;2.83;1.30;;;;;;;;;;5013331;28;20208;-59
2023/06/14 09:47:16;;;;;;;3.05;1.60;;;;;;;;;;5012610;28;20323;-60
2023/06/14 09:49:42;;;;;;;3.72;1.38;;;;;;;;;;5013238;28;20213;-60
2023/06/14 09:52:09;;;;;;;6.97;1.85;;;;;;;;;;5012582;28;20262;-60
2023/06/14 09:54:34;;;;;;;14.10;2.00;;;;;;;;;;5011586;28;20527;-60
2023/06/14 09:57:00;;;;;;;2.40;1.40;;;;;;;;;;5027348;28;20222;-59
2023/06/14 09:59:30;;;;;;;8.95;1.65;;;;;;;;;;5029494;28;20226;-60
2023/06/14 10:01:58;;;;;;;3.58;1.30;;;;;;;;;;5031064;28;20230;-59
2023/06/14 10:04:23;;;;;;;5.07;1.60;;;;;;;;;;5032068;28;20233;-59
2023/06/14 10:06:48;;;;;;;7.38;1.75;;;;;;;;;;5032040;28;20298;-59
2023/06/14 10:09:14;;;;;;;8.32;1.70;;;;;;;;;;5018401;28;20256;-59
2023/06/14 10:11:45;;;;;;;4.65;1.70;;;;;;;;;;5011322;28;20208;-60
2023/06/14 10:14:11;;;;;;;6.63;1.52;;;;;;;;;;5011596;28;20205;-59
2023/06/14 10:16:43;;;;;;;5.63;1.50;;;;;;;;;;5009814;28;20571;-59
2023/06/14 10:19:19;;;;;;;2.50;1.27;;;;;;;;;;5008876;28;20220;-59
2023/06/14 10:21:55;;;;;;;4.30;1.50;;;;;;;;;;5010630;28;20235;-59
2023/06/14 10:24:23;;;;;;;3.83;1.60;;;;;;;;;;5010984;28;20212;-59
2023/06/14 10:26:53;;;;;;;3.35;1.30;;;;;;;;;;5010457;28;20300;-59
2023/06/14 10:29:18;;;;;;;2.72;1.55;;;;;;;;;;5011309;28;20637;-59
2023/06/14 10:31:46;;;;;;;6.68;1.42;;;;;;;;;;5011780;28;20217;-59
2023/06/14 10:34:11;;;;;;;8.45;1.90;;;;;;;;;;5011142;28;20217;-59
2023/06/14 10:36:37;;;;;;;3.97;1.40;;;;;;;;;;5010489;28;20658;-59
2023/06/14 10:39:05;;;;;;;6.22;1.63;;;;;;;;;;5009828;28;20267;-59
2023/06/14 10:41:30;;;;;;;8.98;1.98;;;;;;;;;;5011576;28;20235;-60
2023/06/14 10:44:22;;;;;;;1.80;1.30;;;;;;;;;;5010174;28;20220;-59
2023/06/14 10:46:48;;;;;;;9.18;1.65;;;;;;;;;;5010475;28;20216;-59
2023/06/14 10:49:20;;;;;;;6.35;1.65;;;;;;;;;;5011841;28;20225;-59
2023/06/14 10:51:49;;;;;;;5.00;1.50;;;;;;;;;;5011942;28;20226;-60
2023/06/14 10:54:15;;;;;;;6.82;1.60;;;;;;;;;;5011574;28;20208;-59
2023/06/14 10:56:48;;;;;;;2.45;1.52;;;;;;;;;;5024524;28;20302;-59
2023/06/14 10:59:14;;;;;;;2.75;1.40;;;;;;;;;;5030806;28;20220;-60
2023/06/14 11:01:42;;;;;;;3.33;1.45;;;;;;;;;;5031925;28;20242;-60
2023/06/14 11:04:08;;;;;;;5.55;1.63;;;;;;;;;;5031046;28;20215;-59
2023/06/14 11:06:41;;;;;;;7.22;1.45;;;;;;;;;;5031890;28;20283;-59
2023/06/14 11:09:25;;;;;;;4.30;1.70;;;;;;;;;;5018305;28;20215;-59
2023/06/14 11:11:50;;;;;;;4.43;1.70;;;;;;;;;;5011467;28;20217;-59
2023/06/14 11:14:15;;;;;;;2.30;1.40;;;;;;;;;;5006299;28;20209;-60
2023/06/14 11:16:41;;;;;;;6.15;1.80;;;;;;;;;;5017326;28;20208;-60
2023/06/14 11:19:06;;;;;;;6.22;1.63;;;;;;;;;;5018965;28;20216;-60
2023/06/14 11:21:33;;;;;;;6.30;1.95;;;;;;;;;;5020488;28;20220;-60
2023/06/14 11:23:58;;;;;;;4.45;1.70;;;;;;;;;;5014402;28;20216;-60
2023/06/14 11:26:27;;;;;;;3.95;1.67;;;;;;;;;;5010942;28;20212;-60
2023/06/14 11:28:54;;;;;;;5.30;1.80;;;;;;;;;;5011610;28;20236;-60
2023/06/14 11:31:20;;;;;;;4.80;1.73;;;;;;;;;;5011561;28;20255;-60
2023/06/14 11:33:49;;;;;;;4.70;2.13;;;;;;;;;;5009752;28;20231;-60
2023/06/14 11:36:16;;;;;;;5.70;1.65;;;;;;;;;;5011238;28;20208;-60
2023/06/14 11:38:42;;;;;;;5.60;1.55;;;;;;;;;;5011475;28;20247;-59
2023/06/14 11:41:07;;;;;;;5.15;1.70;;;;;;;;;;5010597;28;20248;-60
2023/06/14 11:43:34;;;;;;;7.45;1.90;;;;;;;;;;5011923;28;20240;-60
2023/06/14 11:46:00;;;;;;;2.88;1.60;;;;;;;;;;5011394;28;20671;-60
2023/06/14 11:48:36;;;;;;;3.35;1.40;;;;;;;;;;5019887;28;20234;-60
2023/06/14 11:51:01;;;;;;;18.08;2.58;;;;;;;;;;5035113;28;20242;-60
2023/06/14 11:53:26;;;;;;;6.88;1.63;;;;;;;;;;5025732;28;20219;-59
2023/06/14 11:55:52;;;;;;;4.47;1.52;;;;;;;;;;5029395;28;20207;-59
2023/06/14 11:58:18;;;;;;;6.00;1.67;;;;;;;;;;5013677;28;20299;-60
2023/06/14 12:00:45;;;;;;;3.38;1.50;;;;;;;;;;5016341;28;20553;-59
2023/06/14 12:03:12;;;;;;;2.88;1.20;;;;;;;;;;5012758;28;20233;-59
2023/06/14 12:05:38;;;;;;;8.10;1.70;;;;;;;;;;5017665;28;20200;-59
2023/06/14 12:08:07;;;;;;;5.50;1.40;;;;;;;;;;5026154;28;20196;-59
2023/06/14 12:10:39;;;;;;;5.68;1.35;;;;;;;;;;5034331;28;20712;-59
2023/06/14 12:13:05;;;;;;;3.55;1.40;;;;;;;;;;5034156;28;20614;-59
2023/06/14 12:15:30;;;;;;;4.63;1.40;;;;;;;;;;5020883;28;20691;-59
2023/06/14 12:17:55;;;;;;;3.28;1.35;;;;;;;;;;5013442;28;20266;-60
2023/06/14 12:20:22;;;;;;;4.15;1.48;;;;;;;;;;5014529;28;20235;-60
2023/06/14 12:22:50;;;;;;;3.00;1.30;;;;;;;;;;5014753;28;20266;-59
2023/06/14 12:25:23;;;;;;;4.50;1.63;;;;;;;;;;5014376;28;20609;-60
2023/06/14 12:27:48;;;;;;;3.53;1.30;;;;;;;;;;5014972;28;20220;-60
2023/06/14 12:30:13;;;;;;;5.28;1.33;;;;;;;;;;5012200;28;20286;-60
2023/06/14 12:32:39;;;;;;;3.03;1.60;;;;;;;;;;5014780;28;20270;-60
2023/06/14 12:35:04;;;;;;;3.20;1.55;;;;;;;;;;5014288;28;20208;-60
2023/06/14 12:37:30;;;;;;;11.18;2.00;;;;;;;;;;5014281;28;20213;-60
2023/06/14 12:39:55;;;;;;;3.88;1.30;;;;;;;;;;5014404;28;20233;-59
2023/06/14 12:42:21;;;;;;;4.60;1.20;;;;;;;;;;5014098;28;20276;-60
2023/06/14 12:44:46;;;;;;;5.65;1.63;;;;;;;;;;5014188;28;20220;-60
2023/06/14 12:47:12;;;;;;;5.07;1.27;;;;;;;;;;5014450;28;20697;-60
2023/06/14 12:49:38;;;;;;;10.02;1.88;;;;;;;;;;5013456;28;20236;-60
2023/06/14 12:52:04;;;;;;;4.93;1.30;;;;;;;;;;5013816;28;20299;-59
2023/06/14 12:54:30;;;;;;;6.00;1.30;;;;;;;;;;5014423;28;20213;-60
2023/06/14 12:56:55;;;;;;;7.53;1.38;;;;;;;;;;5027990;28;20266;-60
2023/06/14 12:59:20;;;;;;;4.78;1.45;;;;;;;;;;5031790;28;20657;-59
2023/06/14 13:01:49;;;;;;;67.25;5.53;;;;;;;;;;5018279;28;20234;-60
2023/06/14 13:04:14;;;;;;;2.10;1.05;;;;;;;;;;5025615;28;20222;-60
2023/06/14 13:06:40;;;;;;;3.47;1.00;;;;;;;;;;5032746;28;20212;-60
2023/06/14 13:09:05;;;;;;;3.35;1.10;;;;;;;;;;5020659;28;20219;-59
2023/06/14 13:11:30;;;;;;;6.93;1.00;;;;;;;;;;5013121;28;20686;-59
2023/06/14 13:13:56;;;;;;;3.10;1.25;;;;;;;;;;5013341;28;20213;-59
2023/06/14 13:16:21;;;;;;;3.10;1.20;;;;;;;;;;5013567;28;20215;-59
2023/06/14 13:18:46;;;;;;;6.18;1.30;;;;;;;;;;5011222;28;20660;-59
2023/06/14 13:21:12;;;;;;;5.68;1.83;;;;;;;;;;5013211;28;20238;-59
2023/06/14 13:23:37;;;;;;;14.20;1.70;;;;;;;;;;5013980;28;20237;-60
2023/06/14 13:26:02;;;;;;;14.18;1.38;;;;;;;;;;5012688;28;20702;-60
2023/06/14 13:28:28;;;;;;;4.03;1.30;;;;;;;;;;5013654;28;20228;-60
2023/06/14 13:30:55;;;;;;;2.15;1.17;;;;;;;;;;5028544;28;20208;-60
2023/06/14 13:33:20;;;;;;;8.38;1.20;;;;;;;;;;5032386;28;20219;-59
2023/06/14 13:35:46;;;;;;;4.03;1.10;;;;;;;;;;5033310;28;20573;-59
2023/06/14 13:38:11;;;;;;;3.65;1.13;;;;;;;;;;5033217;28;20239;-59
2023/06/14 13:40:36;;;;;;;2.42;1.15;;;;;;;;;;5032656;28;20238;-59
2023/06/14 13:43:02;;;;;;;5.40;1.40;;;;;;;;;;5032589;28;20215;-59
2023/06/14 13:45:27;;;;;;;2.85;1.10;;;;;;;;;;5033530;28;20235;-60
2023/06/14 13:47:53;;;;;;;6.55;1.23;;;;;;;;;;5032779;28;20717;-60
2023/06/14 13:50:18;;;;;;;5.75;1.30;;;;;;;;;;5032869;28;20215;-60
2023/06/14 13:52:44;;;;;;;5.70;1.75;;;;;;;;;;5033020;28;20583;-60
2023/06/14 13:55:09;;;;;;;49.58;5.20;;;;;;;;;;5032527;28;20679;-60
2023/06/14 13:57:35;;;;;;;5.22;1.30;;;;;;;;;;5013281;28;20220;-60
2023/06/14 14:00:01;;;;;;;6.07;1.25;;;;;;;;;;5012386;28;20209;-59
2023/06/14 14:02:28;;;;;;;4.63;1.02;;;;;;;;;;5012728;28;20221;-59
2023/06/14 14:04:54;;;;;;;4.63;1.00;;;;;;;;;;5012099;28;20272;-59
2023/06/14 14:07:20;;;;;;;2.20;1.20;;;;;;;;;;5018481;28;20212;-59
2023/06/14 14:09:45;;;;;;;3.22;1.00;;;;;;;;;;5020555;28;20215;-60
2023/06/14 14:12:11;;;;;;;1.65;1.00;;;;;;;;;;5024300;28;20697;-60
2023/06/14 14:14:36;;;;;;;7.82;1.58;;;;;;;;;;5018608;28;20212;-60
2023/06/14 14:17:02;;;;;;;2.47;1.02;;;;;;;;;;5017841;28;20236;-60
2023/06/14 14:19:27;;;;;;;2.20;1.10;;;;;;;;;;5012976;28;20212;-60
2023/06/14 14:21:53;;;;;;;1.48;0.90;;;;;;;;;;5012285;28;20232;-59
2023/06/14 14:24:18;;;;;;;2.88;1.10;;;;;;;;;;5012301;28;20223;-59
2023/06/14 14:26:44;;;;;;;1.40;0.90;;;;;;;;;;5012898;28;20340;-60
2023/06/14 14:29:11;;;;;;;3.15;1.10;;;;;;;;;;5011680;28;20735;-60
2023/06/14 14:31:36;;;;;;;2.20;1.05;;;;;;;;;;5012809;28;20208;-60
2023/06/14 14:34:02;;;;;;;3.33;1.10;;;;;;;;;;5012417;28;20553;-59